Time;durP1;ratioP1;P1;durP2;ratioP2;P2;SDS_P1;SDS_P2;PMS_P1;PMS_P2;Temp;Humidity;BMP_temperature;BMP_pressure;BME280_temperature;BME280_humidity;BME280_pressure;Samples;Min_cycle;Max_cycle;Signal;HPM_P1;HPM_P2
2023/05/12 00:01:13;;;;;;;116.43;48.00;;;;;;;;;;5086407;28;20479;-79
2023/05/12 00:03:40;;;;;;;111.37;43.80;;;;;;;;;;5079409;28;20563;-79
2023/05/12 00:06:07;;;;;;;96.83;44.23;;;;;;;;;;5079722;28;20540;-79
2023/05/12 00:08:33;;;;;;;112.60;48.80;;;;;;;;;;5080883;28;20496;-79
2023/05/12 00:11:01;;;;;;;113.53;46.47;;;;;;;;;;5074981;28;20480;-80
2023/05/12 00:13:28;;;;;;;109.77;46.37;;;;;;;;;;5086318;28;20485;-80
2023/05/12 00:15:55;;;;;;;89.53;43.77;;;;;;;;;;5077396;28;20514;-81
2023/05/12 00:18:21;;;;;;;123.63;46.33;;;;;;;;;;5083397;28;20466;-80
2023/05/12 00:20:48;;;;;;;118.70;49.60;;;;;;;;;;5083955;28;21405;-80
2023/05/12 00:23:14;;;;;;;98.43;42.87;;;;;;;;;;5078318;28;20475;-80
2023/05/12 00:25:41;;;;;;;115.43;45.20;;;;;;;;;;5074959;28;20469;-80
2023/05/12 00:28:09;;;;;;;95.90;42.77;;;;;;;;;;5072566;28;20465;-80
2023/05/12 00:30:35;;;;;;;91.47;43.40;;;;;;;;;;5080963;28;20493;-81
2023/05/12 00:33:02;;;;;;;97.33;42.93;;;;;;;;;;5090831;28;20473;-79
2023/05/12 00:35:28;;;;;;;74.53;39.73;;;;;;;;;;5082731;28;20502;-80
2023/05/12 00:37:55;;;;;;;95.53;41.97;;;;;;;;;;5083498;28;20459;-80
2023/05/12 00:40:21;;;;;;;87.20;41.93;;;;;;;;;;5073308;28;20470;-80
2023/05/12 00:42:48;;;;;;;96.70;45.53;;;;;;;;;;5077171;28;20451;-80
2023/05/12 00:45:16;;;;;;;97.17;45.93;;;;;;;;;;5080422;28;20487;-79
2023/05/12 00:47:42;;;;;;;79.30;43.47;;;;;;;;;;5076272;28;20448;-80
2023/05/12 00:50:09;;;;;;;79.67;40.50;;;;;;;;;;5086352;28;21035;-80
2023/05/12 00:52:36;;;;;;;85.13;42.77;;;;;;;;;;5073635;28;20520;-80
2023/05/12 00:55:04;;;;;;;86.23;38.80;;;;;;;;;;5086678;28;20456;-80
2023/05/12 00:57:30;;;;;;;80.10;39.17;;;;;;;;;;5081785;28;20499;-79
2023/05/12 00:59:57;;;;;;;69.13;38.60;;;;;;;;;;5080866;28;20479;-80
2023/05/12 01:02:25;;;;;;;77.57;39.83;;;;;;;;;;5084571;28;20497;-80
2023/05/12 01:04:51;;;;;;;81.97;39.80;;;;;;;;;;5083958;28;20468;-79
2023/05/12 01:07:18;;;;;;;75.87;39.30;;;;;;;;;;5083398;28;20548;-80
2023/05/12 01:09:45;;;;;;;87.67;40.77;;;;;;;;;;5083204;28;20519;-80
2023/05/12 01:12:11;;;;;;;141.23;44.00;;;;;;;;;;5073342;28;20479;-80
2023/05/12 01:14:38;;;;;;;97.27;41.23;;;;;;;;;;5082011;28;20509;-79
2023/05/12 01:17:07;;;;;;;92.33;44.47;;;;;;;;;;5079325;28;20480;-80
2023/05/12 01:19:46;;;;;;;130.47;44.80;;;;;;;;;;5083610;28;20510;-80
2023/05/12 01:22:12;;;;;;;85.23;41.83;;;;;;;;;;5078530;28;20482;-80
2023/05/12 01:24:44;;;;;;;95.30;40.10;;;;;;;;;;5077505;28;20489;-80
2023/05/12 01:27:12;;;;;;;81.80;36.97;;;;;;;;;;5084298;28;20467;-81
2023/05/12 01:29:39;;;;;;;97.87;39.90;;;;;;;;;;5075695;28;21049;-80
2023/05/12 01:32:05;;;;;;;74.67;37.67;;;;;;;;;;5072808;28;21083;-80
2023/05/12 01:34:33;;;;;;;69.07;39.17;;;;;;;;;;5084179;28;20456;-80
2023/05/12 01:37:00;;;;;;;63.93;39.37;;;;;;;;;;5080068;28;22588;-78
2023/05/12 01:39:26;;;;;;;56.40;34.20;;;;;;;;;;5082656;28;20886;-79
2023/05/12 01:41:53;;;;;;;54.60;34.57;;;;;;;;;;5079887;28;20476;-79
2023/05/12 01:44:21;;;;;;;60.57;36.60;;;;;;;;;;5083902;28;20475;-79
2023/05/12 01:46:48;;;;;;;64.23;37.90;;;;;;;;;;5082969;28;20538;-79
2023/05/12 01:49:14;;;;;;;57.33;34.90;;;;;;;;;;5088831;28;20466;-80
2023/05/12 01:51:42;;;;;;;60.33;35.40;;;;;;;;;;5088606;28;21092;-80
2023/05/12 01:54:09;;;;;;;58.53;34.27;;;;;;;;;;5081193;28;20509;-79
2023/05/12 01:56:35;;;;;;;56.53;34.17;;;;;;;;;;5083306;28;20566;-80
2023/05/12 01:59:02;;;;;;;63.13;36.80;;;;;;;;;;5083132;28;20464;-80
2023/05/12 02:01:31;;;;;;;56.80;33.53;;;;;;;;;;5073244;28;20537;-79
2023/05/12 02:03:57;;;;;;;72.60;35.90;;;;;;;;;;5077512;28;20476;-82
2023/05/12 02:06:24;;;;;;;57.87;35.70;;;;;;;;;;5079416;28;20517;-82
2023/05/12 02:08:51;;;;;;;55.77;36.00;;;;;;;;;;5087807;28;20521;-82
2023/05/12 02:11:17;;;;;;;69.27;37.40;;;;;;;;;;5082729;28;20491;-82
2023/05/12 02:13:44;;;;;;;59.00;34.60;;;;;;;;;;5078503;28;20444;-82
2023/05/12 02:16:11;;;;;;;57.33;33.83;;;;;;;;;;5074026;28;20992;-82
2023/05/12 02:18:39;;;;;;;63.07;35.77;;;;;;;;;;5076379;28;20453;-82
2023/05/12 02:21:05;;;;;;;51.57;32.37;;;;;;;;;;5085056;28;20479;-81
2023/05/12 02:23:32;;;;;;;54.27;34.10;;;;;;;;;;5083421;28;20480;-79
2023/05/12 02:25:58;;;;;;;51.37;31.77;;;;;;;;;;5081421;28;20468;-79
2023/05/12 02:28:25;;;;;;;51.57;31.27;;;;;;;;;;5082932;28;20468;-80
2023/05/12 02:30:51;;;;;;;51.77;31.27;;;;;;;;;;5082207;28;20529;-79
2023/05/12 02:33:18;;;;;;;47.20;31.43;;;;;;;;;;5083440;28;20538;-82
2023/05/12 02:35:46;;;;;;;61.93;35.93;;;;;;;;;;5083215;28;20463;-81
2023/05/12 02:38:13;;;;;;;54.57;32.07;;;;;;;;;;5082914;28;20518;-78
2023/05/12 02:40:39;;;;;;;57.90;31.60;;;;;;;;;;5081968;28;20529;-78
2023/05/12 02:43:06;;;;;;;53.00;32.30;;;;;;;;;;5091874;28;20444;-79
2023/05/12 02:45:32;;;;;;;53.17;30.20;;;;;;;;;;5075812;28;20535;-79
2023/05/12 02:47:59;;;;;;;53.67;30.70;;;;;;;;;;5092047;28;21019;-79
2023/05/12 02:50:25;;;;;;;49.93;29.90;;;;;;;;;;5084875;28;20814;-78
2023/05/12 02:52:53;;;;;;;53.83;29.97;;;;;;;;;;5077661;28;21031;-79
2023/05/12 02:55:20;;;;;;;48.80;31.47;;;;;;;;;;5079235;28;20471;-79
2023/05/12 02:57:46;;;;;;;54.83;32.70;;;;;;;;;;5082308;28;21125;-78
2023/05/12 03:00:13;;;;;;;71.40;34.53;;;;;;;;;;5076986;28;20836;-78
2023/05/12 03:02:40;;;;;;;58.03;31.80;;;;;;;;;;5070299;28;20449;-78
2023/05/12 03:05:07;;;;;;;56.57;31.90;;;;;;;;;;5068574;28;20529;-79
2023/05/12 03:07:34;;;;;;;51.80;32.00;;;;;;;;;;5075339;28;20461;-79
2023/05/12 03:10:02;;;;;;;52.87;29.97;;;;;;;;;;5079627;28;20894;-78
2023/05/12 03:12:29;;;;;;;48.10;29.80;;;;;;;;;;5082171;28;20480;-79
2023/05/12 03:14:55;;;;;;;52.47;30.13;;;;;;;;;;5082280;28;20485;-79
2023/05/12 03:17:22;;;;;;;46.23;31.40;;;;;;;;;;5087833;28;20507;-79
2023/05/12 03:19:48;;;;;;;50.67;31.07;;;;;;;;;;5089373;28;20452;-78
2023/05/12 03:22:15;;;;;;;47.20;31.33;;;;;;;;;;5081792;28;20557;-79
2023/05/12 03:24:42;;;;;;;61.23;34.70;;;;;;;;;;5081659;28;20488;-79
2023/05/12 03:27:09;;;;;;;61.10;32.63;;;;;;;;;;5084988;28;20496;-79
2023/05/12 03:29:36;;;;;;;52.10;31.30;;;;;;;;;;5092335;28;20479;-78
2023/05/12 03:32:02;;;;;;;59.57;34.60;;;;;;;;;;5089522;28;20483;-80
2023/05/12 03:34:30;;;;;;;43.33;28.37;;;;;;;;;;5083360;28;20476;-79
2023/05/12 03:36:57;;;;;;;43.10;30.00;;;;;;;;;;5082635;28;20487;-79
2023/05/12 03:39:23;;;;;;;44.00;29.73;;;;;;;;;;5081467;28;20494;-78
2023/05/12 03:41:50;;;;;;;48.93;31.13;;;;;;;;;;5083234;28;20476;-79
2023/05/12 03:44:18;;;;;;;50.30;30.53;;;;;;;;;;5082215;28;20570;-79
2023/05/12 03:46:44;;;;;;;56.80;31.90;;;;;;;;;;5083656;28;20520;-79
2023/05/12 03:49:11;;;;;;;49.63;29.37;;;;;;;;;;5082364;28;20568;-78
2023/05/12 03:51:37;;;;;;;46.33;31.40;;;;;;;;;;5082149;28;20479;-79
2023/05/12 03:54:04;;;;;;;45.03;29.53;;;;;;;;;;5086084;28;20451;-79
2023/05/12 03:56:30;;;;;;;48.27;29.27;;;;;;;;;;5081017;28;20475;-79
2023/05/12 03:58:57;;;;;;;46.70;29.23;;;;;;;;;;5081511;28;20464;-79
2023/05/12 04:01:25;;;;;;;49.27;29.47;;;;;;;;;;5082924;28;20860;-79
2023/05/12 04:03:51;;;;;;;43.30;29.37;;;;;;;;;;5082805;28;20812;-79
2023/05/12 04:06:18;;;;;;;47.43;30.30;;;;;;;;;;5091840;28;20478;-79
2023/05/12 04:08:44;;;;;;;44.47;29.80;;;;;;;;;;5087685;28;20491;-79
2023/05/12 04:11:11;;;;;;;40.30;29.30;;;;;;;;;;5063163;28;20534;-80
2023/05/12 04:13:37;;;;;;;41.57;29.37;;;;;;;;;;5062622;28;20471;-79
2023/05/12 04:16:04;;;;;;;41.87;27.80;;;;;;;;;;5062780;28;20542;-79
2023/05/12 04:18:32;;;;;;;44.53;29.67;;;;;;;;;;5068023;28;20471;-79
2023/05/12 04:20:58;;;;;;;43.03;28.80;;;;;;;;;;5060721;28;20526;-79
2023/05/12 04:23:25;;;;;;;43.47;27.80;;;;;;;;;;5063721;28;20452;-79
2023/05/12 04:25:51;;;;;;;45.50;29.53;;;;;;;;;;5062633;28;20488;-77
2023/05/12 04:28:18;;;;;;;43.53;28.63;;;;;;;;;;5064400;28;20452;-76
2023/05/12 04:30:44;;;;;;;47.80;29.40;;;;;;;;;;5064629;28;20842;-76
2023/05/12 04:33:11;;;;;;;48.87;29.93;;;;;;;;;;5066260;28;20518;-75
2023/05/12 04:35:39;;;;;;;44.93;29.80;;;;;;;;;;5072309;28;20484;-76
2023/05/12 04:38:05;;;;;;;43.47;30.90;;;;;;;;;;5065720;28;20443;-76
2023/05/12 04:40:32;;;;;;;42.90;28.60;;;;;;;;;;5058076;28;20482;-75
2023/05/12 04:42:58;;;;;;;44.67;30.10;;;;;;;;;;5065148;28;20502;-75
2023/05/12 04:45:24;;;;;;;40.27;29.37;;;;;;;;;;5064212;28;20546;-74
2023/05/12 04:47:51;;;;;;;40.43;29.30;;;;;;;;;;5066062;28;20448;-75
2023/05/12 04:50:17;;;;;;;43.10;28.93;;;;;;;;;;5068849;28;20456;-74
2023/05/12 04:52:45;;;;;;;43.53;29.67;;;;;;;;;;5067320;28;20445;-75
2023/05/12 04:55:12;;;;;;;39.60;29.07;;;;;;;;;;5057877;28;20473;-75
2023/05/12 04:57:40;;;;;;;44.63;31.47;;;;;;;;;;5051782;28;20502;-75
2023/05/12 05:00:07;;;;;;;39.40;29.63;;;;;;;;;;5064264;28;20504;-75
2023/05/12 05:02:34;;;;;;;43.63;31.20;;;;;;;;;;5063929;28;20508;-75
2023/05/12 05:05:00;;;;;;;47.47;30.90;;;;;;;;;;5069090;28;20487;-74
2023/05/12 05:07:27;;;;;;;40.50;29.67;;;;;;;;;;5062365;28;20480;-75
2023/05/12 05:09:55;;;;;;;39.00;28.27;;;;;;;;;;5080658;28;20487;-75
2023/05/12 05:12:21;;;;;;;39.17;28.37;;;;;;;;;;5084065;28;20537;-75
2023/05/12 05:14:48;;;;;;;42.17;27.50;;;;;;;;;;5084122;28;20456;-75
2023/05/12 05:17:14;;;;;;;40.23;27.93;;;;;;;;;;5085086;28;20482;-75
2023/05/12 05:19:41;;;;;;;42.20;28.83;;;;;;;;;;5097865;28;20483;-75
2023/05/12 05:22:08;;;;;;;38.53;29.10;;;;;;;;;;5089112;28;20494;-75
2023/05/12 05:24:34;;;;;;;41.33;29.57;;;;;;;;;;5089892;28;20848;-75
2023/05/12 05:27:02;;;;;;;41.50;30.80;;;;;;;;;;5086625;28;20472;-75
2023/05/12 05:29:29;;;;;;;39.03;27.97;;;;;;;;;;5081062;28;20472;-74
2023/05/12 05:31:55;;;;;;;37.63;28.47;;;;;;;;;;5079382;28;20471;-74
2023/05/12 05:34:21;;;;;;;40.60;28.30;;;;;;;;;;5093332;28;20920;-75
2023/05/12 05:36:48;;;;;;;40.07;28.90;;;;;;;;;;5082717;28;20525;-75
2023/05/12 05:39:14;;;;;;;42.63;30.67;;;;;;;;;;5081681;28;20505;-75
2023/05/12 05:41:41;;;;;;;42.67;30.53;;;;;;;;;;5087438;28;20463;-75
2023/05/12 05:44:09;;;;;;;48.30;30.97;;;;;;;;;;5090239;28;20470;-74
2023/05/12 05:46:35;;;;;;;43.57;32.27;;;;;;;;;;5089564;28;20467;-74
2023/05/12 05:49:02;;;;;;;36.57;28.03;;;;;;;;;;5083696;28;20482;-75
2023/05/12 05:51:28;;;;;;;37.07;29.90;;;;;;;;;;5091240;28;20462;-75
2023/05/12 05:53:54;;;;;;;41.73;31.30;;;;;;;;;;5089196;28;20489;-75
2023/05/12 05:56:21;;;;;;;42.77;31.10;;;;;;;;;;5082755;28;21031;-75
2023/05/12 05:58:48;;;;;;;40.10;30.20;;;;;;;;;;5084811;28;20456;-75
2023/05/12 06:01:16;;;;;;;37.97;28.00;;;;;;;;;;5080687;28;20475;-83
2023/05/12 06:03:42;;;;;;;39.43;28.90;;;;;;;;;;5089501;28;20525;-84
2023/05/12 06:06:09;;;;;;;37.63;28.50;;;;;;;;;;5083111;28;20513;-83
2023/05/12 06:08:35;;;;;;;39.70;27.67;;;;;;;;;;5093228;28;20487;-84
2023/05/12 06:11:02;;;;;;;33.63;27.83;;;;;;;;;;5079042;28;20463;-83
2023/05/12 06:13:28;;;;;;;35.00;27.73;;;;;;;;;;5079544;28;20439;-73
2023/05/12 06:15:55;;;;;;;36.70;27.33;;;;;;;;;;5082597;28;20463;-73
2023/05/12 06:18:23;;;;;;;35.93;26.67;;;;;;;;;;5083602;28;20467;-73
2023/05/12 06:20:50;;;;;;;33.07;25.00;;;;;;;;;;5077756;28;20471;-74
2023/05/12 06:23:16;;;;;;;35.10;26.57;;;;;;;;;;5070384;28;20453;-73
2023/05/12 06:25:43;;;;;;;34.23;26.77;;;;;;;;;;5071370;28;20498;-73
2023/05/12 06:28:09;;;;;;;32.80;26.93;;;;;;;;;;5083358;28;20452;-74
2023/05/12 06:30:36;;;;;;;35.90;27.87;;;;;;;;;;5087965;28;20997;-73
2023/05/12 06:33:02;;;;;;;34.70;27.37;;;;;;;;;;5085894;28;20915;-74
2023/05/12 06:35:30;;;;;;;32.57;26.80;;;;;;;;;;5082694;28;20455;-73
2023/05/12 06:37:57;;;;;;;34.13;27.30;;;;;;;;;;5086471;28;20454;-73
2023/05/12 06:40:23;;;;;;;31.60;27.37;;;;;;;;;;5081558;28;20449;-73
2023/05/12 06:42:50;;;;;;;38.90;28.40;;;;;;;;;;5083617;28;20452;-74
2023/05/12 06:45:17;;;;;;;33.47;27.17;;;;;;;;;;5089211;28;20471;-74
2023/05/12 06:47:43;;;;;;;31.70;27.67;;;;;;;;;;5090760;28;20456;-74
2023/05/12 06:50:10;;;;;;;29.37;26.00;;;;;;;;;;5074102;28;20487;-73
2023/05/12 06:52:38;;;;;;;29.77;26.57;;;;;;;;;;5073213;28;20449;-75
2023/05/12 06:55:05;;;;;;;36.00;27.67;;;;;;;;;;5073529;28;20457;-74
2023/05/12 06:57:32;;;;;;;30.97;25.90;;;;;;;;;;5088123;28;20463;-74
2023/05/12 06:59:59;;;;;;;30.43;26.23;;;;;;;;;;5081366;28;20463;-74
2023/05/12 07:02:25;;;;;;;31.70;26.67;;;;;;;;;;5090752;28;20464;-74
2023/05/12 07:04:52;;;;;;;28.47;25.53;;;;;;;;;;5082034;28;20482;-74
2023/05/12 07:07:18;;;;;;;30.90;24.87;;;;;;;;;;5080892;28;21011;-74
2023/05/12 07:09:46;;;;;;;29.50;25.50;;;;;;;;;;5090969;28;20547;-74
2023/05/12 07:12:13;;;;;;;26.87;24.03;;;;;;;;;;5086934;28;20484;-77
2023/05/12 07:14:39;;;;;;;27.03;24.17;;;;;;;;;;5086580;28;20459;-76
2023/05/12 07:17:06;;;;;;;27.20;23.80;;;;;;;;;;5079818;28;20972;-75
2023/05/12 07:19:34;;;;;;;30.77;24.27;;;;;;;;;;5088173;28;20523;-77
2023/05/12 07:22:00;;;;;;;28.20;23.93;;;;;;;;;;5081597;28;20476;-76
2023/05/12 07:24:27;;;;;;;25.67;23.10;;;;;;;;;;5093619;28;20458;-77
2023/05/12 07:26:55;;;;;;;25.23;22.50;;;;;;;;;;5085480;28;20504;-77
2023/05/12 07:29:22;;;;;;;16.47;14.83;;;;;;;;;;5082276;28;20520;-77
2023/05/12 07:31:48;;;;;;;17.57;15.57;;;;;;;;;;5077370;28;20503;-77
2023/05/12 07:34:15;;;;;;;15.70;14.10;;;;;;;;;;5073272;28;20451;-77
2023/05/12 07:36:41;;;;;;;16.93;15.33;;;;;;;;;;5076128;28;21082;-78
2023/05/12 07:39:08;;;;;;;15.07;13.57;;;;;;;;;;5085245;28;21202;-78
2023/05/12 07:41:38;;;;;;;13.80;12.60;;;;;;;;;;5088470;28;20494;-78
2023/05/12 07:44:06;;;;;;;11.77;10.67;;;;;;;;;;5083018;28;20460;-79
2023/05/12 07:46:32;;;;;;;11.63;10.47;;;;;;;;;;5087305;28;20634;-78
2023/05/12 07:48:59;;;;;;;11.37;10.27;;;;;;;;;;5083648;28;20463;-79
2023/05/12 07:51:26;;;;;;;11.00;10.07;;;;;;;;;;5087904;28;20752;-79
2023/05/12 07:53:54;;;;;;;12.17;11.07;;;;;;;;;;5083110;28;20478;-79
2023/05/12 07:56:20;;;;;;;11.80;10.10;;;;;;;;;;5084735;28;20506;-79
2023/05/12 07:58:47;;;;;;;14.40;11.23;;;;;;;;;;5082817;28;20978;-79
2023/05/12 08:01:15;;;;;;;11.87;10.87;;;;;;;;;;5093980;28;20528;-79
2023/05/12 08:03:41;;;;;;;11.13;10.00;;;;;;;;;;5086717;28;20455;-79
2023/05/12 08:06:08;;;;;;;10.77;9.87;;;;;;;;;;5083821;28;20484;-79
2023/05/12 08:08:35;;;;;;;11.93;9.87;;;;;;;;;;5095356;28;20509;-79
2023/05/12 08:11:01;;;;;;;9.63;8.83;;;;;;;;;;5098063;28;20482;-79
2023/05/12 08:13:28;;;;;;;11.00;10.00;;;;;;;;;;5089157;28;20482;-79
2023/05/12 08:15:54;;;;;;;10.07;9.17;;;;;;;;;;5085951;28;20537;-79
2023/05/12 08:18:22;;;;;;;9.30;8.40;;;;;;;;;;5085195;28;20478;-79
2023/05/12 08:20:49;;;;;;;8.93;8.17;;;;;;;;;;5088613;28;20487;-79
2023/05/12 08:23:16;;;;;;;10.77;8.13;;;;;;;;;;5087169;28;20482;-79
2023/05/12 08:25:43;;;;;;;8.27;7.57;;;;;;;;;;5087373;28;20859;-79
2023/05/12 08:28:09;;;;;;;5.90;5.40;;;;;;;;;;5098883;28;20452;-79
2023/05/12 08:30:36;;;;;;;7.47;4.80;;;;;;;;;;5086256;28;20468;-79
2023/05/12 08:33:03;;;;;;;6.10;5.53;;;;;;;;;;5085225;28;20529;-79
2023/05/12 08:35:31;;;;;;;5.20;4.67;;;;;;;;;;5084043;28;20475;-80
2023/05/12 08:37:58;;;;;;;4.93;4.53;;;;;;;;;;5085506;28;20521;-80
2023/05/12 08:40:25;;;;;;;6.20;5.40;;;;;;;;;;5094667;28;20462;-80
2023/05/12 08:42:56;;;;;;;5.10;4.60;;;;;;;;;;5086067;28;20459;-80
2023/05/12 08:45:23;;;;;;;4.53;4.13;;;;;;;;;;5077583;28;20538;-80
2023/05/12 08:47:50;;;;;;;4.17;3.87;;;;;;;;;;5083893;28;20460;-79
2023/05/12 08:50:19;;;;;;;10.17;4.00;;;;;;;;;;5089154;28;20460;-80
2023/05/12 08:52:47;;;;;;;4.20;3.77;;;;;;;;;;5085287;28;20479;-79
2023/05/12 08:55:14;;;;;;;6.03;4.03;;;;;;;;;;5098536;28;20473;-78
2023/05/12 08:57:44;;;;;;;4.40;4.00;;;;;;;;;;5087678;28;20999;-79
2023/05/12 09:00:12;;;;;;;4.73;3.83;;;;;;;;;;5086237;28;20459;-79
2023/05/12 09:02:39;;;;;;;3.73;3.40;;;;;;;;;;5084930;28;20501;-79
2023/05/12 09:05:06;;;;;;;5.50;4.13;;;;;;;;;;5086174;28;20466;-79
2023/05/12 09:07:33;;;;;;;4.80;3.80;;;;;;;;;;5090859;28;20491;-78
2023/05/12 09:10:03;;;;;;;5.90;4.67;;;;;;;;;;5084550;28;20486;-78
2023/05/12 09:12:31;;;;;;;5.70;4.97;;;;;;;;;;5072467;28;20482;-79
2023/05/12 09:15:00;;;;;;;6.50;4.67;;;;;;;;;;5088373;28;20477;-79
2023/05/12 09:17:27;;;;;;;5.67;5.10;;;;;;;;;;5086044;28;20487;-79
2023/05/12 09:19:53;;;;;;;4.80;4.40;;;;;;;;;;5091016;28;20464;-78
2023/05/12 09:22:27;;;;;;;5.40;5.00;;;;;;;;;;5085412;28;20623;-76
2023/05/12 09:24:54;;;;;;;4.63;4.23;;;;;;;;;;5094439;28;20501;-76
2023/05/12 09:27:26;;;;;;;4.43;4.03;;;;;;;;;;5096608;28;20466;-77
2023/05/12 09:29:52;;;;;;;6.17;4.80;;;;;;;;;;5083549;28;20839;-76
2023/05/12 09:32:29;;;;;;;5.07;4.67;;;;;;;;;;5087584;28;20552;-76
2023/05/12 09:34:55;;;;;;;5.53;4.43;;;;;;;;;;5092630;28;20477;-75
2023/05/12 09:37:30;;;;;;;5.40;4.50;;;;;;;;;;5093495;28;20511;-76
2023/05/12 09:39:58;;;;;;;7.17;4.40;;;;;;;;;;5088397;28;20459;-76
2023/05/12 09:42:28;;;;;;;5.77;4.67;;;;;;;;;;5083268;28;20483;-75
2023/05/12 09:44:58;;;;;;;4.33;4.03;;;;;;;;;;5087626;28;20482;-75
2023/05/12 09:47:27;;;;;;;5.53;4.63;;;;;;;;;;5084166;28;20995;-76
2023/05/12 09:49:54;;;;;;;5.20;4.70;;;;;;;;;;5093678;28;20537;-76
2023/05/12 09:52:21;;;;;;;4.77;4.37;;;;;;;;;;5088398;28;20487;-76
2023/05/12 09:54:48;;;;;;;5.80;5.20;;;;;;;;;;5089750;28;20858;-77
2023/05/12 09:57:15;;;;;;;6.03;4.60;;;;;;;;;;5086835;28;20560;-76
2023/05/12 09:59:44;;;;;;;6.60;4.80;;;;;;;;;;5092296;28;20459;-77
2023/05/12 10:02:14;;;;;;;5.10;4.60;;;;;;;;;;5085853;28;20479;-77
2023/05/12 10:04:44;;;;;;;6.83;6.10;;;;;;;;;;5082059;28;20539;-77
2023/05/12 10:07:12;;;;;;;5.83;5.20;;;;;;;;;;5083930;28;20529;-77
2023/05/12 10:09:40;;;;;;;9.83;5.30;;;;;;;;;;5066776;28;20481;-77
2023/05/12 10:12:07;;;;;;;5.30;4.80;;;;;;;;;;5068039;28;20488;-77
2023/05/12 10:14:35;;;;;;;6.10;4.60;;;;;;;;;;5067298;28;20453;-77
2023/05/12 10:17:03;;;;;;;12.20;4.50;;;;;;;;;;5066082;28;20536;-77
2023/05/12 10:19:30;;;;;;;5.10;4.60;;;;;;;;;;5074450;28;20457;-77
2023/05/12 10:21:57;;;;;;;8.10;4.70;;;;;;;;;;5061863;28;20504;-76
2023/05/12 10:24:25;;;;;;;7.57;4.40;;;;;;;;;;5064082;28;20448;-77
2023/05/12 10:26:53;;;;;;;5.23;4.30;;;;;;;;;;5062803;28;20484;-77
2023/05/12 10:29:19;;;;;;;5.67;4.17;;;;;;;;;;5062258;28;20453;-76
2023/05/12 10:31:46;;;;;;;6.90;3.90;;;;;;;;;;5071837;28;20499;-80
2023/05/12 10:34:18;;;;;;;5.40;4.40;;;;;;;;;;5068221;28;20449;-80
2023/05/12 10:36:48;;;;;;;5.30;4.10;;;;;;;;;;5068446;28;20464;-80
2023/05/12 10:39:15;;;;;;;6.67;4.20;;;;;;;;;;5062596;28;20464;-80
2023/05/12 10:41:42;;;;;;;5.00;4.50;;;;;;;;;;5061120;28;20512;-80
2023/05/12 10:44:10;;;;;;;5.67;5.17;;;;;;;;;;5062296;28;20445;-80
2023/05/12 10:46:36;;;;;;;4.93;4.53;;;;;;;;;;5061995;28;20515;-80
2023/05/12 10:49:06;;;;;;;5.03;4.63;;;;;;;;;;5063618;28;20511;-80
2023/05/12 10:51:35;;;;;;;6.87;4.50;;;;;;;;;;5063495;28;20477;-80
2023/05/12 10:54:02;;;;;;;6.10;5.10;;;;;;;;;;5062242;28;20444;-80
2023/05/12 10:56:29;;;;;;;8.13;5.30;;;;;;;;;;5060447;28;20534;-81
2023/05/12 10:59:12;;;;;;;6.23;5.60;;;;;;;;;;5061832;28;20445;-80
2023/05/12 11:01:39;;;;;;;6.50;5.90;;;;;;;;;;5060967;28;20500;-80
2023/05/12 11:04:13;;;;;;;10.47;6.30;;;;;;;;;;5061857;28;20467;-79
2023/05/12 11:06:42;;;;;;;5.80;5.20;;;;;;;;;;5061194;28;20550;-80
2023/05/12 11:09:09;;;;;;;6.17;5.13;;;;;;;;;;5071699;28;21471;-80
2023/05/12 11:11:36;;;;;;;8.00;5.83;;;;;;;;;;5084648;28;20512;-79
2023/05/12 11:14:03;;;;;;;6.80;5.23;;;;;;;;;;5085142;28;20531;-81
2023/05/12 11:16:29;;;;;;;7.23;5.17;;;;;;;;;;5085788;28;20475;-81
2023/05/12 11:19:02;;;;;;;7.90;6.33;;;;;;;;;;5083564;28;20455;-80
2023/05/12 11:21:29;;;;;;;6.03;5.10;;;;;;;;;;5080833;28;20482;-81
2023/05/12 11:23:58;;;;;;;8.70;5.87;;;;;;;;;;5091372;28;20481;-81
2023/05/12 11:26:24;;;;;;;8.60;6.27;;;;;;;;;;5083663;28;20502;-79
2023/05/12 11:28:51;;;;;;;6.93;6.10;;;;;;;;;;5083814;28;20508;-81
2023/05/12 11:31:18;;;;;;;6.50;6.00;;;;;;;;;;5087297;28;20555;-79
2023/05/12 11:33:46;;;;;;;5.93;5.30;;;;;;;;;;5083250;28;20784;-80
2023/05/12 11:36:13;;;;;;;5.40;5.00;;;;;;;;;;5081976;28;20475;-80
2023/05/12 11:38:39;;;;;;;5.50;4.73;;;;;;;;;;5089262;28;20452;-79
2023/05/12 11:41:07;;;;;;;9.73;5.10;;;;;;;;;;5085557;28;21011;-79
2023/05/12 11:43:34;;;;;;;5.80;4.70;;;;;;;;;;5090415;28;20448;-80
2023/05/12 11:46:00;;;;;;;5.87;4.93;;;;;;;;;;5083082;28;20483;-80
2023/05/12 11:48:32;;;;;;;5.90;5.23;;;;;;;;;;5088992;28;20476;-80
2023/05/12 11:50:59;;;;;;;5.57;4.27;;;;;;;;;;5084282;28;20479;-79
2023/05/12 11:53:26;;;;;;;6.10;4.47;;;;;;;;;;5087185;28;20459;-78
2023/05/12 11:55:53;;;;;;;5.33;4.50;;;;;;;;;;5081830;28;20502;-79
2023/05/12 11:58:23;;;;;;;8.10;4.60;;;;;;;;;;5092389;28;20447;-78
2023/05/12 12:00:49;;;;;;;4.20;3.80;;;;;;;;;;5090118;28;20546;-80
2023/05/12 12:03:16;;;;;;;5.87;4.00;;;;;;;;;;5089637;28;20467;-81
2023/05/12 12:05:44;;;;;;;6.43;4.87;;;;;;;;;;5085442;28;20472;-79
2023/05/12 12:08:12;;;;;;;7.30;6.60;;;;;;;;;;5082705;28;20487;-85
2023/05/12 12:10:38;;;;;;;6.77;4.97;;;;;;;;;;5081869;28;20464;-84
2023/05/12 12:13:05;;;;;;;5.00;4.33;;;;;;;;;;5092520;28;20443;-79
2023/05/12 12:15:33;;;;;;;4.57;4.17;;;;;;;;;;5083436;28;20600;-80
2023/05/12 12:18:00;;;;;;;5.10;4.60;;;;;;;;;;5081607;28;20456;-81
2023/05/12 12:20:26;;;;;;;6.97;4.03;;;;;;;;;;5082448;28;20537;-80
2023/05/12 12:22:53;;;;;;;9.47;4.43;;;;;;;;;;5084436;28;20451;-78
2023/05/12 12:25:20;;;;;;;7.37;4.60;;;;;;;;;;5082480;28;20665;-80
2023/05/12 12:27:47;;;;;;;6.00;4.13;;;;;;;;;;5085483;28;20559;-81
2023/05/12 12:30:14;;;;;;;5.33;3.70;;;;;;;;;;5084169;28;20864;-84
2023/05/12 12:32:42;;;;;;;4.30;3.90;;;;;;;;;;5084727;28;20669;-81
2023/05/12 12:35:10;;;;;;;6.70;4.10;;;;;;;;;;5082039;28;20454;-79
2023/05/12 12:37:36;;;;;;;7.80;4.30;;;;;;;;;;5082895;28;20979;-79
2023/05/12 12:40:07;;;;;;;3.87;3.57;;;;;;;;;;5090026;28;20455;-79
2023/05/12 12:42:34;;;;;;;6.17;5.30;;;;;;;;;;5082559;28;20467;-79
2023/05/12 12:45:01;;;;;;;8.00;4.17;;;;;;;;;;5084153;28;20490;-79
2023/05/12 12:47:27;;;;;;;6.90;3.90;;;;;;;;;;5087226;28;20482;-79
2023/05/12 12:49:55;;;;;;;4.50;4.10;;;;;;;;;;5085373;28;20493;-78
2023/05/12 12:52:22;;;;;;;6.40;3.80;;;;;;;;;;5084934;28;20493;-79
2023/05/12 12:54:48;;;;;;;5.87;3.90;;;;;;;;;;5086771;28;20515;-80
2023/05/12 12:57:15;;;;;;;5.87;3.87;;;;;;;;;;5093350;28;20472;-79
2023/05/12 12:59:41;;;;;;;5.60;4.00;;;;;;;;;;5088546;28;20456;-80
2023/05/12 13:02:08;;;;;;;6.70;4.57;;;;;;;;;;5084489;28;20503;-79
2023/05/12 13:04:35;;;;;;;5.87;4.63;;;;;;;;;;5084394;28;20479;-79
2023/05/12 13:07:02;;;;;;;5.30;4.03;;;;;;;;;;5092547;28;20474;-80
2023/05/12 13:09:29;;;;;;;9.07;4.13;;;;;;;;;;5087915;28;20528;-79
2023/05/12 13:11:56;;;;;;;4.10;3.70;;;;;;;;;;5095987;28;20482;-79
2023/05/12 13:14:23;;;;;;;4.90;4.50;;;;;;;;;;5086314;28;20468;-79
2023/05/12 13:16:51;;;;;;;5.77;4.63;;;;;;;;;;5087585;28;20479;-79
2023/05/12 13:19:18;;;;;;;4.77;4.27;;;;;;;;;;5085700;28;20619;-78
2023/05/12 13:21:44;;;;;;;5.70;4.60;;;;;;;;;;5085065;28;20515;-79
2023/05/12 13:24:12;;;;;;;8.60;4.63;;;;;;;;;;5085423;28;21038;-78
2023/05/12 13:26:38;;;;;;;5.07;4.57;;;;;;;;;;5081636;28;20467;-78
2023/05/12 13:29:05;;;;;;;4.70;3.70;;;;;;;;;;5083401;28;20460;-76
2023/05/12 13:31:32;;;;;;;4.63;4.10;;;;;;;;;;5082550;28;20475;-77
2023/05/12 13:33:58;;;;;;;4.47;3.90;;;;;;;;;;5083763;28;20506;-79
2023/05/12 13:36:25;;;;;;;4.87;4.40;;;;;;;;;;5083929;28;20479;-78
2023/05/12 13:38:52;;;;;;;6.00;4.03;;;;;;;;;;5086659;28;20455;-79
2023/05/12 13:41:19;;;;;;;4.67;3.53;;;;;;;;;;5091702;28;20498;-78
2023/05/12 13:43:47;;;;;;;4.60;4.13;;;;;;;;;;5092108;28;20457;-78
2023/05/12 13:46:13;;;;;;;4.40;3.63;;;;;;;;;;5085407;28;20486;-78
2023/05/12 13:48:40;;;;;;;7.03;3.63;;;;;;;;;;5087427;28;20571;-78
2023/05/12 13:51:07;;;;;;;5.87;3.90;;;;;;;;;;5085789;28;20484;-77
2023/05/12 13:53:36;;;;;;;4.07;3.70;;;;;;;;;;5093382;28;20516;-76
2023/05/12 13:56:02;;;;;;;4.10;3.80;;;;;;;;;;5080107;28;20472;-77
2023/05/12 13:58:30;;;;;;;5.27;3.13;;;;;;;;;;5084990;28;20455;-75
2023/05/12 14:00:56;;;;;;;3.90;3.17;;;;;;;;;;5082606;28;20476;-76
2023/05/12 14:03:23;;;;;;;3.83;3.43;;;;;;;;;;5083907;28;20551;-76
2023/05/12 14:05:49;;;;;;;4.20;3.70;;;;;;;;;;5079137;28;20464;-76
2023/05/12 14:08:17;;;;;;;4.93;4.13;;;;;;;;;;5088382;28;20526;-76
2023/05/12 14:10:43;;;;;;;4.30;3.90;;;;;;;;;;5081076;28;20480;-77
2023/05/12 14:13:10;;;;;;;7.40;4.13;;;;;;;;;;5083081;28;20462;-76
2023/05/12 14:15:38;;;;;;;5.47;3.70;;;;;;;;;;5082492;28;20476;-76
2023/05/12 14:18:04;;;;;;;4.77;4.33;;;;;;;;;;5093612;28;20464;-76
2023/05/12 14:20:32;;;;;;;6.60;4.50;;;;;;;;;;5082682;28;20863;-76
2023/05/12 14:22:59;;;;;;;4.00;3.60;;;;;;;;;;5094645;28;20533;-76
2023/05/12 14:25:25;;;;;;;7.87;4.50;;;;;;;;;;5092600;28;20512;-76
2023/05/12 14:27:52;;;;;;;5.23;4.50;;;;;;;;;;5087549;28;20521;-77